Time;durP1;ratioP1;P1;durP2;ratioP2;P2;SDS_P1;SDS_P2;PMS_P1;PMS_P2;Temp;Humidity;BMP_temperature;BMP_pressure;BME280_temperature;BME280_humidity;BME280_pressure;Samples;Min_cycle;Max_cycle;Signal;HPM_P1;HPM_P2
2021/01/08 00:02:25;;;;;;;17.48;9.55;;;1.30;89.70;;;;;;5000385;28;20613;-76
2021/01/08 00:04:52;;;;;;;16.55;9.13;;;1.30;90.10;;;;;;4982226;28;20214;-77
2021/01/08 00:07:18;;;;;;;16.25;9.40;;;1.30;89.80;;;;;;4979806;28;20236;-76
2021/01/08 00:09:44;;;;;;;19.15;9.18;;;1.20;90.00;;;;;;4973715;28;20213;-78
2021/01/08 00:12:11;;;;;;;16.20;9.93;;;1.20;90.10;;;;;;4977282;28;20216;-79
2021/01/08 00:14:38;;;;;;;19.25;9.43;;;1.10;90.10;;;;;;4991617;28;20233;-79
2021/01/08 00:17:04;;;;;;;17.77;9.45;;;1.20;90.20;;;;;;4992129;28;20232;-79
2021/01/08 00:19:31;;;;;;;19.13;10.55;;;1.30;90.40;;;;;;4981285;28;20227;-75
2021/01/08 00:21:57;;;;;;;17.65;9.48;;;1.40;90.20;;;;;;4978745;28;20272;-77
2021/01/08 00:24:24;;;;;;;15.88;9.68;;;1.40;89.80;;;;;;4976147;28;20206;-79
2021/01/08 00:26:50;;;;;;;17.58;9.30;;;1.50;89.30;;;;;;4977140;28;20216;-77
2021/01/08 00:29:17;;;;;;;19.15;9.93;;;1.60;88.00;;;;;;4995781;28;20224;-77
2021/01/08 00:31:47;;;;;;;19.30;10.05;;;1.60;86.70;;;;;;4995519;28;20215;-75
2021/01/08 00:34:15;;;;;;;17.25;9.90;;;1.60;86.70;;;;;;5005808;28;20220;-77
2021/01/08 00:36:48;;;;;;;19.33;9.95;;;1.70;86.10;;;;;;5014704;28;20235;-78
2021/01/08 00:39:15;;;;;;;17.00;9.90;;;1.70;85.20;;;;;;5017137;28;20233;-78
2021/01/08 00:41:41;;;;;;;13.10;8.88;;;1.80;83.60;;;;;;5006369;28;20296;-77
2021/01/08 00:44:08;;;;;;;17.65;9.20;;;1.80;82.80;;;;;;4993143;28;20778;-76
2021/01/08 00:46:37;;;;;;;14.77;9.30;;;1.80;81.60;;;;;;5002824;28;20201;-79
2021/01/08 00:49:05;;;;;;;17.95;9.15;;;1.90;80.40;;;;;;5019063;28;20276;-78
2021/01/08 00:51:32;;;;;;;13.52;8.20;;;1.90;80.30;;;;;;5018768;28;20203;-78
2021/01/08 00:53:58;;;;;;;18.67;9.90;;;1.90;79.90;;;;;;5016478;28;20239;-80
2021/01/08 00:56:25;;;;;;;16.40;9.18;;;1.90;79.40;;;;;;4999993;28;20211;-79
2021/01/08 00:58:51;;;;;;;10.35;7.85;;;2.00;78.90;;;;;;4984090;28;20233;-80
2021/01/08 01:01:18;;;;;;;17.25;8.57;;;2.00;78.90;;;;;;4993380;28;20364;-77
2021/01/08 01:03:45;;;;;;;14.38;9.10;;;2.10;79.00;;;;;;4997995;28;20190;-79
2021/01/08 01:06:12;;;;;;;16.33;8.77;;;2.00;78.90;;;;;;5015073;28;20281;-79
2021/01/08 01:08:39;;;;;;;14.52;8.25;;;2.00;78.90;;;;;;5012647;28;20614;-77
2021/01/08 01:11:05;;;;;;;15.48;9.05;;;2.10;79.00;;;;;;4981124;28;20244;-76
2021/01/08 01:13:32;;;;;;;20.00;9.35;;;2.10;79.00;;;;;;4981683;28;20225;-79
2021/01/08 01:15:59;;;;;;;16.60;9.27;;;2.10;79.00;;;;;;4993960;28;20204;-77
2021/01/08 01:18:25;;;;;;;14.77;8.80;;;2.00;78.90;;;;;;4997504;28;20248;-76
2021/01/08 01:20:51;;;;;;;17.67;9.45;;;2.00;78.90;;;;;;4995232;28;20255;-77
2021/01/08 01:23:19;;;;;;;15.57;9.60;;;2.10;80.00;;;;;;5004594;28;20205;-76
2021/01/08 01:25:45;;;;;;;16.70;9.60;;;2.00;78.90;;;;;;4987458;28;20259;-77
2021/01/08 01:28:12;;;;;;;16.42;9.07;;;2.00;80.00;;;;;;4975868;28;20225;-78
2021/01/08 01:30:38;;;;;;;17.00;8.65;;;2.00;80.90;;;;;;4978986;28;20216;-77
2021/01/08 01:33:04;;;;;;;14.57;8.93;;;2.00;81.60;;;;;;4982745;28;20228;-76
2021/01/08 01:35:31;;;;;;;20.23;8.93;;;2.00;82.20;;;;;;5000009;28;20216;-77
2021/01/08 01:37:58;;;;;;;18.60;10.43;;;2.00;82.70;;;;;;4995965;28;20231;-76
2021/01/08 01:40:25;;;;;;;15.95;8.50;;;2.10;83.10;;;;;;5001764;28;20326;-75
2021/01/08 01:42:52;;;;;;;17.38;10.32;;;2.00;83.00;;;;;;4995385;28;20265;-75
2021/01/08 01:45:18;;;;;;;13.88;8.77;;;2.10;83.30;;;;;;4993219;28;20216;-77
2021/01/08 01:47:44;;;;;;;16.13;9.57;;;2.10;83.80;;;;;;5007626;28;20787;-77
2021/01/08 01:50:11;;;;;;;19.13;11.00;;;2.10;84.10;;;;;;5013033;28;20208;-78
2021/01/08 01:52:38;;;;;;;15.07;10.00;;;2.00;84.20;;;;;;4997424;28;20224;-77
2021/01/08 01:55:07;;;;;;;18.00;10.50;;;2.00;85.00;;;;;;4990274;28;20209;-80
2021/01/08 01:57:34;;;;;;;20.95;10.98;;;2.00;86.00;;;;;;5006624;28;20228;-78
2021/01/08 02:00:01;;;;;;;19.45;11.27;;;2.00;87.10;;;;;;5006141;28;20455;-79
2021/01/08 02:02:43;;;;;;;19.35;11.00;;;2.00;87.10;;;;;;4990482;28;20304;-77
2021/01/08 02:05:12;;;;;;;21.60;11.10;;;2.00;87.10;;;;;;4987711;28;20374;-77
2021/01/08 02:07:45;;;;;;;22.92;12.90;;;1.90;87.40;;;;;;5001400;28;20657;-77
2021/01/08 02:10:30;;;;;;;20.02;12.07;;;1.90;88.60;;;;;;5001888;28;20196;-74
2021/01/08 02:13:00;;;;;;;22.83;11.55;;;1.90;89.00;;;;;;4988519;28;20315;-75
2021/01/08 02:15:28;;;;;;;22.33;11.65;;;1.90;89.30;;;;;;4991382;28;20300;-75
2021/01/08 02:17:55;;;;;;;23.27;12.65;;;1.90;89.60;;;;;;4996879;28;20231;-75
2021/01/08 02:20:22;;;;;;;18.60;11.32;;;1.90;89.80;;;;;;4998627;28;20292;-77
2021/01/08 02:22:54;;;;;;;24.13;11.63;;;1.90;89.90;;;;;;4982200;28;20200;-77
2021/01/08 02:25:24;;;;;;;23.33;12.65;;;1.90;90.30;;;;;;4989158;28;20565;-76
2021/01/08 02:28:18;;;;;;;21.63;12.70;;;1.90;90.40;;;;;;4998584;28;20243;-76
2021/01/08 02:30:45;;;;;;;23.38;12.52;;;1.90;90.50;;;;;;5000124;28;20205;-77
2021/01/08 02:33:12;;;;;;;22.45;12.32;;;1.90;90.70;;;;;;4993769;28;20232;-76
2021/01/08 02:35:40;;;;;;;21.70;11.82;;;1.90;90.80;;;;;;4984800;28;20209;-78
2021/01/08 02:38:07;;;;;;;23.70;12.65;;;1.90;91.00;;;;;;4976129;28;20229;-76
2021/01/08 02:40:35;;;;;;;19.48;11.57;;;1.90;91.10;;;;;;4989178;28;20291;-78
2021/01/08 02:43:04;;;;;;;23.70;12.75;;;1.90;91.20;;;;;;5001636;28;20247;-77
2021/01/08 02:45:31;;;;;;;25.30;14.00;;;1.90;91.40;;;;;;4985760;28;20201;-76
2021/01/08 02:47:58;;;;;;;27.27;14.27;;;1.80;91.50;;;;;;4982680;28;20315;-77
2021/01/08 02:50:25;;;;;;;24.80;13.65;;;1.80;91.80;;;;;;4975528;28;20239;-77
2021/01/08 02:52:58;;;;;;;26.20;13.55;;;1.80;92.10;;;;;;4982949;28;20204;-78
2021/01/08 02:55:30;;;;;;;22.20;11.90;;;1.80;91.80;;;;;;4995386;28;20555;-76
2021/01/08 02:58:00;;;;;;;21.85;12.43;;;1.80;91.90;;;;;;4993155;28;20235;-76
2021/01/08 03:00:36;;;;;;;25.23;14.35;;;1.80;91.80;;;;;;4995613;28;20644;-78
2021/01/08 03:03:04;;;;;;;26.33;13.60;;;1.80;91.60;;;;;;4988084;28;20244;-78
2021/01/08 03:05:31;;;;;;;20.10;12.10;;;1.80;91.60;;;;;;4975237;28;20240;-78
2021/01/08 03:07:58;;;;;;;18.33;11.77;;;1.80;91.70;;;;;;4982841;28;20244;-78
2021/01/08 03:10:25;;;;;;;21.75;12.95;;;1.90;91.70;;;;;;4985577;28;20244;-77
2021/01/08 03:12:56;;;;;;;19.85;11.90;;;1.90;91.40;;;;;;4983367;28;20540;-77
2021/01/08 03:15:23;;;;;;;21.95;11.95;;;1.90;91.30;;;;;;4982775;28;20251;-76
2021/01/08 03:17:50;;;;;;;19.00;12.07;;;2.00;90.60;;;;;;4982964;28;20302;-76
2021/01/08 03:20:16;;;;;;;23.50;13.27;;;2.00;90.30;;;;;;5008658;28;20289;-75
2021/01/08 03:22:44;;;;;;;19.73;11.27;;;2.00;90.10;;;;;;5027204;23;20718;-78
2021/01/08 03:25:14;;;;;;;24.75;13.70;;;2.00;89.30;;;;;;4997740;28;20209;-80
2021/01/08 03:27:41;;;;;;;17.77;11.32;;;2.00;88.90;;;;;;4996932;28;20219;-80
2021/01/08 03:30:09;;;;;;;21.73;12.68;;;2.10;88.70;;;;;;4996390;28;20231;-80
2021/01/08 03:32:40;;;;;;;23.33;12.85;;;2.00;88.50;;;;;;4996848;28;20286;-79
2021/01/08 03:35:08;;;;;;;21.80;11.30;;;2.00;88.90;;;;;;4996739;28;20212;-80
2021/01/08 03:37:36;;;;;;;21.35;12.23;;;2.10;88.90;;;;;;4996772;28;20200;-82
2021/01/08 03:40:06;;;;;;;24.27;12.68;;;2.10;88.30;;;;;;4998875;28;20577;-81
2021/01/08 03:42:37;;;;;;;19.13;12.20;;;2.10;87.20;;;;;;4998464;28;20255;-81
2021/01/08 03:45:05;;;;;;;19.45;12.18;;;2.10;87.90;;;;;;4999414;28;20193;-82
2021/01/08 03:47:36;;;;;;;18.27;11.90;;;2.20;87.20;;;;;;5000411;28;20212;-81
2021/01/08 03:50:22;;;;;;;23.50;12.63;;;2.10;87.20;;;;;;5011510;28;20215;-82
2021/01/08 03:52:52;;;;;;;18.73;11.23;;;2.20;87.20;;;;;;5004469;28;20254;-81
2021/01/08 03:55:21;;;;;;;18.02;11.05;;;2.20;87.20;;;;;;5006846;28;20204;-82
2021/01/08 03:57:53;;;;;;;17.52;10.85;;;2.20;85.70;;;;;;5014059;28;20231;-81
2021/01/08 04:00:33;;;;;;;18.35;10.77;;;2.20;85.50;;;;;;5015157;28;20204;-82
2021/01/08 04:03:01;;;;;;;19.05;10.60;;;2.20;85.30;;;;;;5011552;28;20244;-83
2021/01/08 04:05:35;;;;;;;19.65;12.10;;;2.20;85.00;;;;;;4996181;28;20213;-81
2021/01/08 04:08:04;;;;;;;24.42;11.32;;;2.20;85.40;;;;;;4999490;28;20219;-83
2021/01/08 04:10:35;;;;;;;16.65;11.23;;;2.20;85.00;;;;;;5018735;28;20208;-83
2021/01/08 04:13:06;;;;;;;15.20;10.32;;;2.20;85.40;;;;;;5014577;28;20287;-82
2021/01/08 04:15:38;;;;;;;19.80;12.02;;;2.20;85.80;;;;;;5015297;28;20276;-82
2021/01/08 04:18:09;;;;;;;19.17;10.95;;;2.20;87.10;;;;;;5012005;28;20212;-82
2021/01/08 04:20:41;;;;;;;14.57;9.75;;;2.20;87.20;;;;;;5015248;28;20204;-81
2021/01/08 04:23:15;;;;;;;14.70;9.43;;;2.20;87.20;;;;;;5016526;28;20236;-81
2021/01/08 04:25:44;;;;;;;16.83;9.73;;;2.20;87.20;;;;;;5015188;28;20192;-82
2021/01/08 04:31:07;;;;;;;20.42;10.70;;;2.10;88.60;;;;;;5017046;28;20238;-82
2021/01/08 04:33:43;;;;;;;16.25;10.02;;;2.10;89.10;;;;;;5017328;28;20232;-83
2021/01/08 04:36:20;;;;;;;17.42;10.35;;;2.20;90.00;;;;;;5016092;28;20209;-81
2021/01/08 04:38:52;;;;;;;17.05;10.88;;;2.10;90.20;;;;;;5017874;28;20216;-82
2021/01/08 04:41:22;;;;;;;21.25;10.05;;;2.10;90.30;;;;;;5018391;28;20208;-82
2021/01/08 04:43:55;;;;;;;17.58;10.25;;;2.10;90.50;;;;;;4999804;28;20221;-82
2021/01/08 04:46:32;;;;;;;19.25;10.00;;;2.00;90.80;;;;;;5014632;28;20248;-80
2021/01/08 04:49:05;;;;;;;17.35;10.32;;;2.00;91.00;;;;;;5003023;28;20230;-82
2021/01/08 04:51:36;;;;;;;18.52;9.57;;;2.00;91.10;;;;;;4998118;28;20193;-82
2021/01/08 04:54:04;;;;;;;17.40;10.68;;;2.10;91.20;;;;;;4995555;28;20236;-82
2021/01/08 04:56:43;;;;;;;22.95;13.05;;;2.10;91.10;;;;;;4995168;28;20217;-83
2021/01/08 04:59:20;;;;;;;16.08;9.95;;;2.00;91.00;;;;;;5013537;28;20192;-80
2021/01/08 05:02:09;;;;;;;15.80;9.80;;;2.10;91.10;;;;;;5018958;28;20215;-82
2021/01/08 05:07:37;;;;;;;16.92;10.25;;;2.10;91.00;;;;;;5018318;28;20264;-82
2021/01/08 05:10:10;;;;;;;19.05;11.32;;;2.10;90.80;;;;;;5017537;28;20200;-81
2021/01/08 05:12:51;;;;;;;18.63;10.85;;;2.00;90.90;;;;;;5018024;28;20229;-78
2021/01/08 05:15:29;;;;;;;16.08;10.13;;;2.00;90.90;;;;;;5016910;28;20238;-81
2021/01/08 05:18:00;;;;;;;20.75;11.90;;;2.00;91.30;;;;;;5018084;28;20200;-81
2021/01/08 05:20:29;;;;;;;18.52;12.18;;;2.00;91.40;;;;;;5015137;28;20200;-82
2021/01/08 05:23:02;;;;;;;19.15;11.10;;;2.00;91.80;;;;;;5017496;28;20250;-82
2021/01/08 05:25:39;;;;;;;17.35;11.20;;;2.00;92.00;;;;;;5018865;28;20192;-81
2021/01/08 05:28:09;;;;;;;19.17;10.93;;;1.90;92.20;;;;;;5017055;28;20223;-81
2021/01/08 05:30:43;;;;;;;21.50;11.13;;;2.00;92.30;;;;;;5000998;28;20231;-81
2021/01/08 05:33:17;;;;;;;20.77;12.77;;;1.90;92.20;;;;;;4999801;28;20224;-81
2021/01/08 05:35:46;;;;;;;18.83;11.63;;;1.90;92.30;;;;;;4999346;28;20339;-80
2021/01/08 05:38:21;;;;;;;21.80;12.07;;;1.90;92.40;;;;;;4999629;28;20218;-81
2021/01/08 05:40:51;;;;;;;18.02;10.40;;;1.90;92.80;;;;;;4987681;28;20639;-82
2021/01/08 05:43:20;;;;;;;19.67;12.00;;;1.90;93.00;;;;;;4981343;28;20232;-80
2021/01/08 05:45:48;;;;;;;18.63;12.38;;;2.00;92.80;;;;;;4981075;28;20701;-80
2021/01/08 05:48:17;;;;;;;21.73;12.63;;;1.90;92.70;;;;;;4981381;28;20213;-80
2021/01/08 05:50:48;;;;;;;20.75;12.23;;;2.00;93.00;;;;;;4979157;28;20225;-80
2021/01/08 05:53:21;;;;;;;21.60;11.95;;;2.00;93.10;;;;;;4979071;28;20240;-80
2021/01/08 05:55:49;;;;;;;21.10;13.10;;;2.00;93.00;;;;;;4983349;28;20229;-80
2021/01/08 05:58:20;;;;;;;20.00;12.15;;;2.00;93.30;;;;;;4992092;28;20217;-80
2021/01/08 06:00:59;;;;;;;17.88;11.10;;;2.00;93.30;;;;;;4979332;28;20213;-80
2021/01/08 06:03:33;;;;;;;21.38;12.27;;;2.00;93.00;;;;;;4978976;28;20225;-80
2021/01/08 06:06:03;;;;;;;21.27;11.50;;;2.00;93.10;;;;;;4978832;28;20240;-81
2021/01/08 06:08:39;;;;;;;21.65;12.85;;;1.90;93.10;;;;;;4989946;28;20209;-80
2021/01/08 06:11:13;;;;;;;26.77;13.55;;;1.90;93.20;;;;;;5002287;28;20213;-79
2021/01/08 06:13:42;;;;;;;24.52;14.20;;;1.90;93.40;;;;;;5016233;28;20699;-81
2021/01/08 06:16:11;;;;;;;22.25;12.73;;;1.90;93.50;;;;;;5017690;28;20215;-81
2021/01/08 06:18:52;;;;;;;16.70;10.70;;;1.90;93.40;;;;;;5017853;28;20218;-81
2021/01/08 06:21:38;;;;;;;22.05;11.65;;;1.90;93.30;;;;;;5013711;28;20224;-81
2021/01/08 06:24:16;;;;;;;23.70;11.57;;;1.90;93.30;;;;;;5009408;28;20335;-82
2021/01/08 06:26:50;;;;;;;20.25;11.70;;;1.90;93.20;;;;;;5016213;28;20262;-83
2021/01/08 06:29:22;;;;;;;18.88;10.93;;;1.90;93.30;;;;;;5016654;28;20216;-87
2021/01/08 06:31:52;;;;;;;18.58;11.43;;;1.90;93.40;;;;;;5014603;28;20256;-88
2021/01/08 06:34:33;;;;;;;21.70;12.50;;;1.90;92.90;;;;;;5018055;28;20235;-84
2021/01/08 06:37:08;;;;;;;22.65;11.75;;;1.90;93.00;;;;;;5018426;28;20201;-85
2021/01/08 06:39:44;;;;;;;22.73;10.32;;;1.90;93.00;;;;;;5018315;28;20219;-84
2021/01/08 06:42:27;;;;;;;27.27;14.18;;;1.90;93.00;;;;;;5016592;28;20200;-82
2021/01/08 06:44:56;;;;;;;24.27;13.05;;;1.90;92.90;;;;;;5000716;28;20197;-84
2021/01/08 06:47:29;;;;;;;21.58;12.07;;;1.90;92.80;;;;;;5011896;28;20641;-83
2021/01/08 06:49:59;;;;;;;20.42;12.02;;;1.90;92.60;;;;;;5016147;28;20218;-86
2021/01/08 06:52:31;;;;;;;22.50;12.88;;;2.00;92.20;;;;;;5015329;28;20235;-83
2021/01/08 06:55:04;;;;;;;22.65;12.57;;;1.90;92.20;;;;;;5014887;28;20263;-85
2021/01/08 06:57:36;;;;;;;21.98;13.25;;;1.90;92.20;;;;;;5015688;28;20343;-85
2021/01/08 07:00:08;;;;;;;21.90;11.30;;;1.90;92.20;;;;;;5011032;28;20291;-82
2021/01/08 07:02:40;;;;;;;21.88;13.00;;;1.90;92.20;;;;;;5008592;28;20243;-82
2021/01/08 07:05:16;;;;;;;19.67;12.30;;;2.00;92.20;;;;;;5007262;28;20198;-83
2021/01/08 07:07:50;;;;;;;22.13;13.30;;;1.90;91.90;;;;;;5004694;28;20218;-80
2021/01/08 07:10:26;;;;;;;21.88;12.60;;;1.90;92.20;;;;;;5005809;28;20283;-81
2021/01/08 07:13:09;;;;;;;22.00;12.65;;;2.00;92.10;;;;;;5018473;28;20254;-86
2021/01/08 07:26:57;;;;;;;21.85;12.45;;;2.00;91.70;;;;;;4992175;28;20218;-80
2021/01/08 07:29:29;;;;;;;24.50;12.43;;;1.90;91.50;;;;;;4989713;28;20213;-82
2021/01/08 07:32:00;;;;;;;21.55;12.48;;;1.90;91.30;;;;;;4990587;28;20237;-82
2021/01/08 07:34:34;;;;;;;21.35;12.85;;;2.00;91.30;;;;;;4991990;28;20223;-80
2021/01/08 07:37:07;;;;;;;23.08;13.02;;;2.00;91.30;;;;;;4997943;28;20185;-83
2021/01/08 08:10:41;;;;;;;24.08;12.00;;;2.20;88.70;;;;;;4981660;28;20228;-82
2021/01/08 08:13:08;;;;;;;18.05;11.10;;;2.20;88.30;;;;;;5001023;28;20241;-80
2021/01/08 08:15:46;;;;;;;19.42;11.55;;;2.20;87.20;;;;;;5001381;28;20243;-81
2021/01/08 08:18:13;;;;;;;22.38;11.48;;;2.20;87.20;;;;;;5001474;28;20232;-80
2021/01/08 08:20:40;;;;;;;18.33;11.13;;;2.20;87.20;;;;;;5000798;28;20206;-80
2021/01/08 08:23:14;;;;;;;17.73;11.55;;;2.20;87.20;;;;;;5026222;23;20304;-76
2021/01/08 08:25:42;;;;;;;16.52;10.60;;;2.20;86.80;;;;;;4998902;28;20327;-79
2021/01/08 08:28:09;;;;;;;15.85;10.20;;;2.20;86.30;;;;;;4997915;28;20596;-76
2021/01/08 08:30:35;;;;;;;15.98;10.93;;;2.20;87.20;;;;;;4997267;28;20215;-77
2021/01/08 08:33:04;;;;;;;21.85;11.80;;;2.20;87.20;;;;;;4997889;28;20403;-76
2021/01/08 08:35:33;;;;;;;20.65;11.70;;;2.20;87.20;;;;;;4997749;28;20236;-77
2021/01/08 08:38:00;;;;;;;19.50;11.20;;;2.20;86.50;;;;;;4998829;28;20232;-77
2021/01/08 08:40:29;;;;;;;19.73;11.60;;;2.20;87.20;;;;;;4999710;28;20593;-76
2021/01/08 08:43:00;;;;;;;19.40;11.30;;;2.20;87.20;;;;;;4997712;28;20291;-79
2021/01/08 08:45:28;;;;;;;19.08;10.40;;;2.30;86.90;;;;;;4999220;28;20291;-77
2021/01/08 08:47:56;;;;;;;16.85;10.18;;;2.30;85.80;;;;;;4998711;28;20276;-77
2021/01/08 08:50:23;;;;;;;20.38;10.88;;;2.30;84.80;;;;;;5000524;28;20290;-76
2021/01/08 08:52:50;;;;;;;17.55;10.30;;;2.30;84.00;;;;;;5012771;28;20241;-77
2021/01/08 08:55:31;;;;;;;17.90;10.10;;;2.40;84.00;;;;;;5014151;28;20231;-78
2021/01/08 08:58:06;;;;;;;20.55;11.73;;;2.40;83.70;;;;;;5014185;28;20264;-76
2021/01/08 09:00:35;;;;;;;15.68;10.13;;;2.40;82.60;;;;;;5017610;28;20211;-78
2021/01/08 09:03:14;;;;;;;14.90;9.57;;;2.30;82.40;;;;;;5019051;28;20227;-78
2021/01/08 09:05:41;;;;;;;19.55;9.38;;;2.40;82.70;;;;;;5019510;28;20197;-78
2021/01/08 09:08:18;;;;;;;12.55;8.75;;;2.40;82.00;;;;;;5018305;28;20204;-76
2021/01/08 09:10:52;;;;;;;16.40;9.88;;;2.40;81.00;;;;;;5018029;28;20192;-78
2021/01/08 09:13:32;;;;;;;18.52;9.70;;;2.40;80.10;;;;;;5019230;28;20268;-76
2021/01/08 09:16:04;;;;;;;14.10;9.55;;;2.40;79.80;;;;;;5019733;28;20177;-78
2021/01/08 09:18:45;;;;;;;16.77;10.07;;;2.40;79.70;;;;;;5019804;28;20177;-76
2021/01/08 09:21:18;;;;;;;16.15;9.18;;;2.40;79.90;;;;;;5017352;28;20192;-78
2021/01/08 09:23:48;;;;;;;14.60;9.95;;;2.40;79.20;;;;;;5016658;28;20236;-76
2021/01/08 09:26:17;;;;;;;15.43;9.50;;;2.50;78.90;;;;;;5018619;28;20201;-77
2021/01/08 09:28:47;;;;;;;16.33;9.85;;;2.40;77.30;;;;;;5019030;28;20268;-78
2021/01/08 09:31:14;;;;;;;15.60;9.10;;;2.50;76.20;;;;;;5017822;28;20265;-76
2021/01/08 09:33:41;;;;;;;14.23;9.43;;;2.40;74.50;;;;;;5018425;28;20237;-79
2021/01/08 09:36:08;;;;;;;16.42;10.23;;;2.40;74.90;;;;;;5019462;28;20216;-78
2021/01/08 09:38:36;;;;;;;12.85;8.10;;;2.40;74.80;;;;;;5018868;28;20193;-77
2021/01/08 09:41:04;;;;;;;12.38;8.35;;;2.50;74.40;;;;;;5017663;28;20200;-76
2021/01/08 09:43:30;;;;;;;19.92;9.40;;;2.50;74.30;;;;;;5017776;28;20228;-78
2021/01/08 09:46:07;;;;;;;16.67;9.38;;;2.60;74.00;;;;;;5012427;28;20232;-77
2021/01/08 09:48:34;;;;;;;14.95;8.73;;;2.50;73.10;;;;;;5017940;28;20201;-78
2021/01/08 09:51:03;;;;;;;16.85;9.30;;;2.50;73.50;;;;;;5016723;28;20239;-78
2021/01/08 09:53:30;;;;;;;17.42;9.02;;;2.50;74.20;;;;;;5015818;28;20217;-77
2021/01/08 09:56:14;;;;;;;20.30;10.27;;;2.50;74.00;;;;;;4998938;28;20694;-77
2021/01/08 09:58:44;;;;;;;16.30;8.85;;;2.50;74.40;;;;;;5015553;28;20208;-76
2021/01/08 10:01:14;;;;;;;15.48;9.43;;;2.40;74.80;;;;;;5019227;28;20196;-76
2021/01/08 10:03:41;;;;;;;17.90;10.13;;;2.30;75.90;;;;;;5010602;28;20217;-77
2021/01/08 10:06:09;;;;;;;16.33;9.38;;;2.20;77.00;;;;;;4993107;28;20219;-77
2021/01/08 10:08:39;;;;;;;15.75;9.70;;;2.20;78.40;;;;;;5004047;28;20224;-78
2021/01/08 10:11:07;;;;;;;15.18;9.23;;;2.10;79.00;;;;;;5018198;28;20711;-77
2021/01/08 10:13:34;;;;;;;17.00;9.05;;;2.00;80.80;;;;;;4996082;28;20271;-75
2021/01/08 10:16:08;;;;;;;14.23;9.45;;;2.00;82.20;;;;;;5000465;28;20261;-78
2021/01/08 10:18:38;;;;;;;17.02;9.30;;;1.90;83.00;;;;;;5018953;28;20217;-77
2021/01/08 10:21:06;;;;;;;16.48;9.00;;;1.80;84.40;;;;;;5019235;28;20185;-77
2021/01/08 10:23:41;;;;;;;15.23;9.27;;;1.80;86.00;;;;;;5136474;23;20295;-78
2021/01/08 10:26:12;;;;;;;18.60;9.80;;;1.90;87.00;;;;;;5018775;28;20212;-76
2021/01/08 10:28:49;;;;;;;16.35;8.95;;;1.90;86.90;;;;;;5019274;28;20212;-78
2021/01/08 10:31:16;;;;;;;17.50;9.60;;;1.90;87.00;;;;;;4996418;28;20208;-77
2021/01/08 10:33:44;;;;;;;16.38;9.70;;;1.90;87.00;;;;;;5001672;28;20259;-77
2021/01/08 10:56:52;;;;;;;17.67;11.02;;;1.70;90.10;;;;;;5009107;28;20218;-81
2021/01/08 10:59:18;;;;;;;19.67;10.20;;;1.70;90.30;;;;;;5009730;28;20196;-80
2021/01/08 11:01:45;;;;;;;19.80;10.35;;;1.70;90.30;;;;;;5005010;28;20567;-81
2021/01/08 11:04:12;;;;;;;24.05;12.00;;;1.70;90.50;;;;;;5001286;28;20370;-80
2021/01/08 11:06:39;;;;;;;23.92;11.65;;;1.80;90.80;;;;;;5000355;28;20350;-81
2021/01/08 11:09:06;;;;;;;19.63;10.52;;;1.80;91.10;;;;;;5028518;23;20247;-76
2021/01/08 11:14:09;;;;;;;19.80;10.27;;;1.70;90.80;;;;;;5294987;23;20262;-78
2021/01/08 11:16:36;;;;;;;17.10;10.40;;;1.70;90.70;;;;;;5016870;28;20196;-77
2021/01/08 11:19:02;;;;;;;18.58;10.55;;;1.80;90.70;;;;;;5004815;28;20600;-76
2021/01/08 11:21:29;;;;;;;19.92;10.05;;;1.70;90.60;;;;;;4996816;28;20227;-77
2021/01/08 11:23:55;;;;;;;18.83;10.63;;;1.70;90.50;;;;;;4995990;28;20300;-77
2021/01/08 11:26:25;;;;;;;18.55;10.63;;;1.70;90.90;;;;;;4996042;28;20595;-76
2021/01/08 11:28:59;;;;;;;18.10;10.63;;;1.80;91.30;;;;;;5012209;28;20231;-77
2021/01/08 11:31:32;;;;;;;19.35;11.13;;;1.80;91.00;;;;;;5017006;28;20256;-78
2021/01/08 11:33:58;;;;;;;20.13;11.25;;;1.90;91.00;;;;;;5003481;28;20293;-75
2021/01/08 11:36:25;;;;;;;17.35;10.55;;;1.90;90.70;;;;;;4996091;28;20205;-77
2021/01/08 11:38:51;;;;;;;19.73;11.75;;;1.90;90.20;;;;;;4998033;28;20240;-75
2021/01/08 11:41:18;;;;;;;18.30;10.70;;;2.00;90.20;;;;;;5000345;28;20264;-76
2021/01/08 11:43:45;;;;;;;17.02;9.77;;;2.00;89.40;;;;;;5003047;28;20213;-77
2021/01/08 11:46:15;;;;;;;25.48;11.52;;;2.00;89.40;;;;;;4999770;28;20272;-76
2021/01/08 11:48:43;;;;;;;17.42;10.15;;;2.10;89.20;;;;;;5002351;28;20680;-77
2021/01/08 11:51:12;;;;;;;19.05;10.43;;;2.10;87.20;;;;;;5014696;28;20196;-78
2021/01/08 11:53:41;;;;;;;17.25;9.68;;;2.00;88.00;;;;;;5015694;28;20226;-77
2021/01/08 11:56:09;;;;;;;20.20;10.57;;;2.00;87.70;;;;;;5014072;28;20216;-77
2021/01/08 11:58:36;;;;;;;27.92;10.80;;;2.10;87.90;;;;;;5007926;28;20224;-76
2021/01/08 12:01:03;;;;;;;19.38;10.38;;;2.10;87.50;;;;;;5010415;28;20200;-76
2021/01/08 12:03:30;;;;;;;22.00;10.60;;;2.00;87.10;;;;;;5013982;28;20219;-78
2021/01/08 12:05:58;;;;;;;15.75;10.02;;;2.10;87.20;;;;;;5011822;28;20656;-77
2021/01/08 12:08:24;;;;;;;26.60;11.68;;;2.10;87.20;;;;;;5009710;28;20214;-75
2021/01/08 12:10:51;;;;;;;22.70;11.65;;;2.20;87.30;;;;;;4997870;28;20316;-77
2021/01/08 12:13:18;;;;;;;18.63;10.20;;;2.10;87.20;;;;;;4998582;28;20303;-77
2021/01/08 12:15:45;;;;;;;24.10;11.23;;;2.10;87.20;;;;;;4997235;28;20240;-75
2021/01/08 12:18:12;;;;;;;22.15;11.18;;;2.20;87.20;;;;;;4997923;28;20266;-77
2021/01/08 12:20:38;;;;;;;18.10;10.95;;;2.10;87.20;;;;;;4999585;28;20227;-77
2021/01/08 12:23:06;;;;;;;18.15;9.57;;;2.10;87.20;;;;;;4999210;28;20569;-76
2021/01/08 12:25:35;;;;;;;18.40;10.38;;;2.20;87.20;;;;;;4999238;28;20734;-77
2021/01/08 12:28:03;;;;;;;16.75;10.02;;;2.30;87.30;;;;;;4997798;28;20240;-76
2021/01/08 12:30:29;;;;;;;17.85;11.95;;;2.40;86.70;;;;;;5000780;28;20229;-76
2021/01/08 12:32:56;;;;;;;18.52;10.52;;;2.40;84.80;;;;;;5000415;28;20224;-76
2021/01/08 12:35:23;;;;;;;22.95;10.88;;;2.50;83.40;;;;;;5000456;28;20766;-76
2021/01/08 12:37:51;;;;;;;20.98;11.05;;;2.50;82.10;;;;;;5000711;28;20579;-77
2021/01/08 12:40:19;;;;;;;21.92;10.70;;;2.60;81.70;;;;;;5010404;28;20295;-75
2021/01/08 12:42:47;;;;;;;18.23;10.23;;;2.70;81.10;;;;;;5011496;28;20212;-74
2021/01/08 12:45:14;;;;;;;19.80;11.05;;;2.70;80.10;;;;;;5004959;28;20205;-77
2021/01/08 12:47:41;;;;;;;18.52;9.88;;;2.70;79.50;;;;;;5005879;28;20236;-76
2021/01/08 12:50:08;;;;;;;16.20;8.68;;;2.60;79.40;;;;;;5008144;28;20369;-75
2021/01/08 12:52:35;;;;;;;18.55;10.32;;;2.60;79.40;;;;;;5004941;28;20244;-76
2021/01/08 12:55:02;;;;;;;17.08;10.15;;;2.60;79.30;;;;;;5003489;28;20270;-76
2021/01/08 12:57:29;;;;;;;18.42;9.93;;;2.50;78.50;;;;;;5003505;28;20295;-79
2021/01/08 12:59:55;;;;;;;18.02;10.75;;;2.50;78.60;;;;;;5002692;28;20289;-79
2021/01/08 13:02:22;;;;;;;19.45;10.32;;;2.40;79.30;;;;;;5011450;28;20212;-79
2021/01/08 13:04:49;;;;;;;18.48;10.90;;;2.40;79.20;;;;;;4998958;28;20208;-78
2021/01/08 13:07:18;;;;;;;15.85;9.68;;;2.40;79.30;;;;;;5000413;28;20739;-77
2021/01/08 13:09:44;;;;;;;15.18;9.68;;;2.40;79.20;;;;;;5005691;28;20239;-77
2021/01/08 13:12:13;;;;;;;15.18;10.35;;;2.40;79.70;;;;;;5006248;28;20227;-77
2021/01/08 13:14:40;;;;;;;17.48;10.77;;;2.40;80.00;;;;;;5008571;28;20231;-77
2021/01/08 13:17:07;;;;;;;18.42;9.55;;;2.40;80.10;;;;;;5009266;28;20219;-77
2021/01/08 13:19:34;;;;;;;18.00;9.90;;;2.50;80.50;;;;;;5002940;28;20319;-77
2021/01/08 13:22:00;;;;;;;20.63;10.40;;;2.50;79.40;;;;;;5003151;28;20700;-79
2021/01/08 13:24:26;;;;;;;16.88;10.55;;;2.50;79.30;;;;;;5003403;28;20211;-77
2021/01/08 13:26:55;;;;;;;15.60;9.15;;;2.60;79.40;;;;;;5001925;28;20213;-77
2021/01/08 13:29:21;;;;;;;13.13;9.35;;;2.60;80.00;;;;;;5000677;28;20647;-78
2021/01/08 13:31:49;;;;;;;17.02;9.93;;;2.60;78.50;;;;;;5001509;28;20220;-78
2021/01/08 13:34:16;;;;;;;18.02;9.93;;;2.60;77.90;;;;;;5001831;28;20224;-77
2021/01/08 13:36:43;;;;;;;15.88;9.40;;;2.60;77.60;;;;;;4999711;28;20212;-77
2021/01/08 13:39:11;;;;;;;17.30;10.95;;;2.60;78.30;;;;;;5000351;28;20242;-76
2021/01/08 13:41:37;;;;;;;18.83;10.55;;;2.40;77.40;;;;;;4999276;28;20205;-77
2021/01/08 13:44:04;;;;;;;18.33;10.82;;;2.40;77.60;;;;;;4998879;28;20653;-77
2021/01/08 13:46:31;;;;;;;17.35;11.45;;;2.40;79.20;;;;;;4999759;28;20637;-77
2021/01/08 13:48:58;;;;;;;16.02;10.93;;;2.30;79.10;;;;;;4997322;28;20331;-77
2021/01/08 13:51:26;;;;;;;16.10;10.15;;;2.30;79.90;;;;;;4995515;28;20236;-77
2021/01/08 13:53:53;;;;;;;18.83;10.38;;;2.40;80.50;;;;;;4996021;28;20300;-77
2021/01/08 13:56:22;;;;;;;16.52;10.15;;;2.40;80.50;;;;;;4996669;28;20724;-76
2021/01/08 13:58:49;;;;;;;19.25;10.00;;;2.40;79.20;;;;;;4996048;28;20425;-77
2021/01/08 14:01:16;;;;;;;17.27;10.18;;;2.50;79.30;;;;;;4994972;28;20240;-77
2021/01/08 14:03:43;;;;;;;16.52;10.65;;;2.40;79.40;;;;;;4995201;28;20291;-77
2021/01/08 14:06:18;;;;;;;18.80;10.65;;;2.40;80.70;;;;;;4994264;28;20291;-76